Time;durP1;ratioP1;P1;durP2;ratioP2;P2;SDS_P1;SDS_P2;PMS_P1;PMS_P2;Temp;Humidity;BMP_temperature;BMP_pressure;BME280_temperature;BME280_humidity;BME280_pressure;Samples;Min_cycle;Max_cycle;Signal;HPM_P1;HPM_P2
2023/03/05 00:01:16;;;;;;;37.57;18.23;;;;;;;;;;5080623;28;20229;-64
2023/03/05 00:03:44;;;;;;;38.50;18.63;;;;;;;;;;5080522;28;20631;-64
2023/03/05 00:06:12;;;;;;;38.03;18.67;;;;;;;;;;5080463;28;20206;-64
2023/03/05 00:08:40;;;;;;;33.97;17.30;;;;;;;;;;5080388;28;20265;-64
2023/03/05 00:11:09;;;;;;;36.83;17.73;;;;;;;;;;5080578;28;20230;-64
2023/03/05 00:13:37;;;;;;;39.53;19.80;;;;;;;;;;5080409;28;20213;-63
2023/03/05 00:16:06;;;;;;;37.53;19.13;;;;;;;;;;5080378;28;20226;-64
2023/03/05 00:18:35;;;;;;;36.17;17.97;;;;;;;;;;5080381;28;20206;-64
2023/03/05 00:21:04;;;;;;;35.10;18.77;;;;;;;;;;5080148;28;20253;-64
2023/03/05 00:23:32;;;;;;;33.97;18.17;;;;;;;;;;5080571;28;20210;-64
2023/03/05 00:26:01;;;;;;;39.17;18.53;;;;;;;;;;5080121;28;20708;-64
2023/03/05 00:28:29;;;;;;;34.87;18.23;;;;;;;;;;5080115;28;20600;-64
2023/03/05 00:30:59;;;;;;;35.17;17.50;;;;;;;;;;5080353;28;20254;-64
2023/03/05 00:33:27;;;;;;;31.83;17.30;;;;;;;;;;5080454;28;20252;-64
2023/03/05 00:35:57;;;;;;;35.30;17.93;;;;;;;;;;5080152;28;20202;-64
2023/03/05 00:38:25;;;;;;;39.23;18.07;;;;;;;;;;5080162;28;20202;-64
2023/03/05 00:40:54;;;;;;;30.73;16.90;;;;;;;;;;5079673;28;20225;-64
2023/03/05 00:43:22;;;;;;;36.60;17.73;;;;;;;;;;5080030;28;20206;-64
2023/03/05 00:45:50;;;;;;;32.53;16.23;;;;;;;;;;5079704;28;20258;-64
2023/03/05 00:48:18;;;;;;;31.23;16.63;;;;;;;;;;5079673;28;20241;-64
2023/03/05 00:50:46;;;;;;;34.43;17.50;;;;;;;;;;5079690;28;20767;-64
2023/03/05 00:53:15;;;;;;;31.40;16.77;;;;;;;;;;5080016;28;20214;-64
2023/03/05 00:55:43;;;;;;;34.73;17.07;;;;;;;;;;5079466;28;20676;-63
2023/03/05 00:58:11;;;;;;;34.10;16.83;;;;;;;;;;5079483;28;20784;-63
2023/03/05 01:00:39;;;;;;;32.40;16.87;;;;;;;;;;5079698;28;20469;-64
2023/03/05 01:03:07;;;;;;;36.60;18.17;;;;;;;;;;5079782;28;20455;-64
2023/03/05 01:05:35;;;;;;;33.47;16.63;;;;;;;;;;5079350;28;20488;-63
2023/03/05 01:08:03;;;;;;;152.17;77.80;;;;;;;;;;5079365;28;20468;-64
2023/03/05 01:10:33;;;;;;;37.13;18.40;;;;;;;;;;5079071;28;20313;-63
2023/03/05 01:13:01;;;;;;;35.17;17.13;;;;;;;;;;5079493;28;20528;-63
2023/03/05 01:15:29;;;;;;;33.70;16.37;;;;;;;;;;5079426;28;20440;-63
2023/03/05 01:17:57;;;;;;;31.80;15.27;;;;;;;;;;5079025;28;20531;-64
2023/03/05 01:20:25;;;;;;;30.60;16.00;;;;;;;;;;5079305;28;20464;-64
2023/03/05 01:22:53;;;;;;;30.17;15.97;;;;;;;;;;5079123;28;20799;-64
2023/03/05 01:25:27;;;;;;;30.83;17.00;;;;;;;;;;5079166;28;20975;-64
2023/03/05 01:27:56;;;;;;;34.87;16.93;;;;;;;;;;5078960;28;20454;-64
2023/03/05 01:30:27;;;;;;;34.90;16.73;;;;;;;;;;5078119;28;20495;-64
2023/03/05 01:32:55;;;;;;;31.80;16.37;;;;;;;;;;5079103;28;20448;-64
2023/03/05 01:35:24;;;;;;;28.13;16.40;;;;;;;;;;5078695;28;20932;-64
2023/03/05 01:37:55;;;;;;;30.50;16.23;;;;;;;;;;5079211;28;20445;-64
2023/03/05 01:40:25;;;;;;;31.60;16.33;;;;;;;;;;5078532;28;20510;-64
2023/03/05 01:42:58;;;;;;;34.03;16.43;;;;;;;;;;5078942;28;20213;-64
2023/03/05 01:45:27;;;;;;;29.33;15.67;;;;;;;;;;5078747;28;20486;-64
2023/03/05 01:47:55;;;;;;;31.23;15.50;;;;;;;;;;5078773;28;20472;-64
2023/03/05 01:50:24;;;;;;;29.77;15.73;;;;;;;;;;5078647;28;20464;-63
2023/03/05 01:52:55;;;;;;;28.63;16.07;;;;;;;;;;5078771;28;20440;-64
2023/03/05 01:55:24;;;;;;;28.90;14.80;;;;;;;;;;5065152;28;20472;-64
2023/03/05 01:57:53;;;;;;;30.00;16.77;;;;;;;;;;5078367;28;20270;-64
2023/03/05 02:00:26;;;;;;;29.33;15.97;;;;;;;;;;5077703;28;20507;-64
2023/03/05 02:02:54;;;;;;;29.37;15.43;;;;;;;;;;5077343;28;20636;-64
2023/03/05 02:05:25;;;;;;;30.00;15.10;;;;;;;;;;5077332;28;20491;-64
2023/03/05 02:07:54;;;;;;;24.87;14.17;;;;;;;;;;5077387;28;20230;-64
2023/03/05 02:10:24;;;;;;;29.47;15.53;;;;;;;;;;5078110;28;20228;-64
2023/03/05 02:12:53;;;;;;;29.60;14.63;;;;;;;;;;5078104;28;20202;-64
2023/03/05 02:15:21;;;;;;;27.77;15.13;;;;;;;;;;5078504;28;20440;-64
2023/03/05 02:17:50;;;;;;;23.30;14.30;;;;;;;;;;5078166;28;20288;-64
2023/03/05 02:20:19;;;;;;;24.13;13.87;;;;;;;;;;5077961;28;21000;-64
2023/03/05 02:22:48;;;;;;;28.67;14.97;;;;;;;;;;5078228;28;20468;-64
2023/03/05 02:25:18;;;;;;;24.83;13.20;;;;;;;;;;5077970;28;20480;-63
2023/03/05 02:27:49;;;;;;;27.57;14.90;;;;;;;;;;5077884;28;20939;-63
2023/03/05 02:30:17;;;;;;;32.27;13.27;;;;;;;;;;5077629;28;20469;-63
2023/03/05 02:32:45;;;;;;;23.77;14.17;;;;;;;;;;5077968;28;20445;-63
2023/03/05 02:35:13;;;;;;;25.57;13.67;;;;;;;;;;5077786;28;20447;-63
2023/03/05 02:37:41;;;;;;;26.67;13.17;;;;;;;;;;5078089;28;20444;-64
2023/03/05 02:40:11;;;;;;;26.87;13.37;;;;;;;;;;5077411;28;20955;-64
2023/03/05 02:42:39;;;;;;;26.67;12.97;;;;;;;;;;5076855;28;20490;-63
2023/03/05 02:45:08;;;;;;;25.77;13.27;;;;;;;;;;5077601;28;20986;-63
2023/03/05 02:47:36;;;;;;;24.00;12.70;;;;;;;;;;5077622;28;20441;-64
2023/03/05 02:50:05;;;;;;;26.90;13.70;;;;;;;;;;5077918;28;20476;-63
2023/03/05 02:52:32;;;;;;;24.47;12.57;;;;;;;;;;5077926;28;20440;-63
2023/03/05 02:55:00;;;;;;;23.73;12.63;;;;;;;;;;5077626;28;20476;-63
2023/03/05 02:57:30;;;;;;;21.53;11.90;;;;;;;;;;5077635;28;20440;-63
2023/03/05 02:59:58;;;;;;;25.10;13.63;;;;;;;;;;5077847;28;20226;-63
2023/03/05 03:02:26;;;;;;;23.00;12.37;;;;;;;;;;5077444;28;20852;-63
2023/03/05 03:04:53;;;;;;;21.87;12.43;;;;;;;;;;5077782;28;20449;-63
2023/03/05 03:07:21;;;;;;;28.73;13.43;;;;;;;;;;5077470;28;20552;-63
2023/03/05 03:09:49;;;;;;;21.43;13.23;;;;;;;;;;5077466;28;20543;-63
2023/03/05 03:12:17;;;;;;;24.70;12.20;;;;;;;;;;5077718;28;20444;-63
2023/03/05 03:14:47;;;;;;;21.93;12.20;;;;;;;;;;5073795;28;20456;-63
2023/03/05 03:17:15;;;;;;;21.20;11.83;;;;;;;;;;5077151;28;20965;-63
2023/03/05 03:19:44;;;;;;;23.40;12.57;;;;;;;;;;5077348;28;20467;-63
2023/03/05 03:22:13;;;;;;;22.50;12.20;;;;;;;;;;5077311;28;20950;-64
2023/03/05 03:24:42;;;;;;;25.77;12.43;;;;;;;;;;5077054;28;20489;-64
2023/03/05 03:27:10;;;;;;;22.00;12.13;;;;;;;;;;5076946;28;21013;-63
2023/03/05 03:29:38;;;;;;;18.63;11.07;;;;;;;;;;5077434;28;20452;-63
2023/03/05 03:32:08;;;;;;;22.70;11.83;;;;;;;;;;5076896;28;20475;-63
2023/03/05 03:34:36;;;;;;;26.77;11.90;;;;;;;;;;5077395;28;20447;-63
2023/03/05 03:37:04;;;;;;;21.13;12.07;;;;;;;;;;5077224;28;20440;-63
2023/03/05 03:39:32;;;;;;;19.53;11.67;;;;;;;;;;5076714;28;20851;-63
2023/03/05 03:42:00;;;;;;;22.10;12.60;;;;;;;;;;5077088;28;20449;-63
2023/03/05 03:44:28;;;;;;;18.27;11.47;;;;;;;;;;5077153;28;20451;-63
2023/03/05 03:46:56;;;;;;;24.23;11.90;;;;;;;;;;5077333;28;20559;-63
2023/03/05 03:49:25;;;;;;;21.80;11.47;;;;;;;;;;5077249;28;20461;-63
2023/03/05 03:51:54;;;;;;;25.23;12.13;;;;;;;;;;5077357;28;20448;-63
2023/03/05 03:54:22;;;;;;;23.83;11.97;;;;;;;;;;5080412;28;20531;-63
2023/03/05 03:56:51;;;;;;;24.67;12.07;;;;;;;;;;5080761;28;20446;-63
2023/03/05 03:59:19;;;;;;;24.20;10.90;;;;;;;;;;5080598;28;20460;-63
2023/03/05 04:01:47;;;;;;;20.90;10.70;;;;;;;;;;5080790;28;20454;-63
2023/03/05 04:04:15;;;;;;;18.90;10.63;;;;;;;;;;5080813;28;20444;-63
2023/03/05 04:06:44;;;;;;;20.73;11.97;;;;;;;;;;5080611;28;20484;-63
2023/03/05 04:09:12;;;;;;;20.83;11.27;;;;;;;;;;5080051;28;20472;-62
2023/03/05 04:11:40;;;;;;;21.83;11.13;;;;;;;;;;5080747;28;20472;-63
2023/03/05 04:14:08;;;;;;;18.50;11.30;;;;;;;;;;5080386;28;20532;-63
2023/03/05 04:16:36;;;;;;;22.97;11.00;;;;;;;;;;5080510;28;20471;-63
2023/03/05 04:19:04;;;;;;;20.23;11.53;;;;;;;;;;5080413;28;20455;-63
2023/03/05 04:21:32;;;;;;;20.63;10.77;;;;;;;;;;5080300;28;20476;-63
2023/03/05 04:24:01;;;;;;;19.13;9.70;;;;;;;;;;5079897;28;20506;-63
2023/03/05 04:26:29;;;;;;;20.13;11.67;;;;;;;;;;5080191;28;20970;-63
2023/03/05 04:28:57;;;;;;;21.43;10.90;;;;;;;;;;5080347;28;20528;-63
2023/03/05 04:31:25;;;;;;;25.53;12.73;;;;;;;;;;5080295;28;20446;-63
2023/03/05 04:33:53;;;;;;;19.87;10.47;;;;;;;;;;5080249;28;20440;-62
2023/03/05 04:36:21;;;;;;;20.27;11.03;;;;;;;;;;5080302;28;20441;-62
2023/03/05 04:38:49;;;;;;;21.83;11.13;;;;;;;;;;5079702;28;20483;-62
2023/03/05 04:41:18;;;;;;;21.53;11.57;;;;;;;;;;5079730;28;20472;-62
2023/03/05 04:43:46;;;;;;;19.93;11.60;;;;;;;;;;5079868;28;20440;-63
2023/03/05 04:46:14;;;;;;;21.57;11.70;;;;;;;;;;5079608;28;20880;-63
2023/03/05 04:48:42;;;;;;;19.40;11.13;;;;;;;;;;5079791;28;20980;-64
2023/03/05 04:51:10;;;;;;;26.23;11.07;;;;;;;;;;5079728;28;20523;-63
2023/03/05 04:53:38;;;;;;;19.17;11.17;;;;;;;;;;5079428;28;20475;-63
2023/03/05 04:56:07;;;;;;;24.63;10.93;;;;;;;;;;5079558;28;20484;-63
2023/03/05 04:58:36;;;;;;;20.13;12.00;;;;;;;;;;5079868;28;20445;-63
2023/03/05 05:01:06;;;;;;;19.20;10.23;;;;;;;;;;5079586;28;20465;-62
2023/03/05 05:03:34;;;;;;;20.37;11.13;;;;;;;;;;5079493;28;20448;-63
2023/03/05 05:06:02;;;;;;;19.33;10.60;;;;;;;;;;5078644;28;20812;-63
2023/03/05 05:08:30;;;;;;;22.67;11.37;;;;;;;;;;5079116;28;20570;-63
2023/03/05 05:10:59;;;;;;;24.80;11.77;;;;;;;;;;5079398;28;20527;-63
2023/03/05 05:13:27;;;;;;;30.23;14.03;;;;;;;;;;5079587;28;20444;-63
2023/03/05 05:15:56;;;;;;;19.63;10.47;;;;;;;;;;5079217;28;20469;-63
2023/03/05 05:18:25;;;;;;;26.23;11.03;;;;;;;;;;5079395;28;20476;-64
2023/03/05 05:20:53;;;;;;;22.03;11.60;;;;;;;;;;5079176;28;21040;-63
2023/03/05 05:23:21;;;;;;;23.97;12.27;;;;;;;;;;5079140;28;20437;-64
2023/03/05 05:25:55;;;;;;;22.00;11.40;;;;;;;;;;5078967;28;20506;-63
2023/03/05 05:28:23;;;;;;;20.77;11.60;;;;;;;;;;5079216;28;20483;-63
2023/03/05 05:30:51;;;;;;;21.90;11.30;;;;;;;;;;5078946;28;20514;-63
2023/03/05 05:33:21;;;;;;;24.50;11.77;;;;;;;;;;5079170;28;20586;-63
2023/03/05 05:35:49;;;;;;;22.13;12.47;;;;;;;;;;5079257;28;20440;-63
2023/03/05 05:38:18;;;;;;;24.97;11.03;;;;;;;;;;5078802;28;20445;-63
2023/03/05 05:40:46;;;;;;;17.30;10.37;;;;;;;;;;5078650;28;20462;-63
2023/03/05 05:43:14;;;;;;;25.03;12.87;;;;;;;;;;5078967;28;20445;-63
2023/03/05 05:45:42;;;;;;;22.63;11.67;;;;;;;;;;5078743;28;20464;-63
2023/03/05 05:48:10;;;;;;;26.80;12.73;;;;;;;;;;5078761;28;20491;-64
2023/03/05 05:50:40;;;;;;;26.23;13.13;;;;;;;;;;5078709;28;20579;-63
2023/03/05 05:53:07;;;;;;;23.30;12.60;;;;;;;;;;5078657;28;20451;-64
2023/03/05 05:55:35;;;;;;;20.97;11.53;;;;;;;;;;5078501;28;20472;-64
2023/03/05 05:58:03;;;;;;;22.63;12.60;;;;;;;;;;5078551;28;20527;-64
2023/03/05 06:00:31;;;;;;;24.87;12.70;;;;;;;;;;5078534;28;20467;-64
2023/03/05 06:02:59;;;;;;;21.13;12.20;;;;;;;;;;5078350;28;20444;-64
2023/03/05 06:05:27;;;;;;;21.03;11.33;;;;;;;;;;5062968;28;20457;-63
2023/03/05 06:07:57;;;;;;;29.53;13.30;;;;;;;;;;5076589;28;20931;-63
2023/03/05 06:10:24;;;;;;;28.30;11.80;;;;;;;;;;5077658;28;20456;-63
2023/03/05 06:12:52;;;;;;;25.10;12.17;;;;;;;;;;5077919;28;20472;-63
2023/03/05 06:15:20;;;;;;;24.43;11.73;;;;;;;;;;5080424;28;20954;-63
2023/03/05 06:17:48;;;;;;;25.80;12.83;;;;;;;;;;5098208;28;20478;-63
2023/03/05 06:20:16;;;;;;;27.27;12.67;;;;;;;;;;5097799;28;20481;-64
2023/03/05 06:22:44;;;;;;;23.53;11.73;;;;;;;;;;5090718;28;20512;-63
2023/03/05 06:25:14;;;;;;;25.50;11.87;;;;;;;;;;5065461;28;20881;-63
2023/03/05 06:27:42;;;;;;;21.33;11.93;;;;;;;;;;5077122;28;20568;-64
2023/03/05 06:30:10;;;;;;;26.97;13.63;;;;;;;;;;5083138;28;20470;-64
2023/03/05 06:32:39;;;;;;;20.73;12.20;;;;;;;;;;5083298;28;20448;-63
2023/03/05 06:35:08;;;;;;;24.87;12.77;;;;;;;;;;5078988;28;20432;-64
2023/03/05 06:37:36;;;;;;;24.10;13.07;;;;;;;;;;5077555;28;20997;-63
2023/03/05 06:40:06;;;;;;;20.33;12.20;;;;;;;;;;5077876;28;20455;-63
2023/03/05 06:42:35;;;;;;;24.80;12.33;;;;;;;;;;5078418;28;20524;-63
2023/03/05 06:45:04;;;;;;;24.23;12.97;;;;;;;;;;5075088;28;20443;-64
2023/03/05 06:47:32;;;;;;;27.97;13.33;;;;;;;;;;5079605;28;20555;-63
2023/03/05 06:50:00;;;;;;;23.73;12.00;;;;;;;;;;5086665;28;20483;-63
2023/03/05 06:52:28;;;;;;;24.20;12.57;;;;;;;;;;5097313;28;21734;-64
2023/03/05 06:54:56;;;;;;;26.07;13.90;;;;;;;;;;5095981;28;20444;-64
2023/03/05 06:57:24;;;;;;;23.90;12.50;;;;;;;;;;5095865;28;20443;-63
2023/03/05 06:59:53;;;;;;;25.17;13.20;;;;;;;;;;5081257;28;20512;-64
2023/03/05 07:02:21;;;;;;;23.97;13.57;;;;;;;;;;5077027;28;20459;-63
2023/03/05 07:04:49;;;;;;;26.33;12.50;;;;;;;;;;5082590;28;20436;-63
2023/03/05 07:07:17;;;;;;;25.77;12.60;;;;;;;;;;5085199;28;20468;-62
2023/03/05 07:09:46;;;;;;;27.87;13.73;;;;;;;;;;5070291;28;20975;-63
2023/03/05 07:12:14;;;;;;;31.03;13.23;;;;;;;;;;5068137;28;20465;-63
2023/03/05 07:14:42;;;;;;;26.27;13.23;;;;;;;;;;5070406;28;20436;-63
2023/03/05 07:17:14;;;;;;;26.07;12.63;;;;;;;;;;5067406;28;20956;-63
2023/03/05 07:19:42;;;;;;;25.73;12.70;;;;;;;;;;5070905;28;20516;-63
2023/03/05 07:22:10;;;;;;;29.13;13.13;;;;;;;;;;5069925;28;20472;-63
2023/03/05 07:24:38;;;;;;;24.03;12.10;;;;;;;;;;5078641;28;20439;-62
2023/03/05 07:27:06;;;;;;;30.53;14.13;;;;;;;;;;5085424;28;20910;-61
2023/03/05 07:29:34;;;;;;;26.57;13.40;;;;;;;;;;5086246;28;21006;-61
2023/03/05 07:32:02;;;;;;;27.17;13.03;;;;;;;;;;5088658;28;20491;-62
2023/03/05 07:34:31;;;;;;;29.80;13.00;;;;;;;;;;5087172;28;20944;-62
2023/03/05 07:36:59;;;;;;;27.10;13.27;;;;;;;;;;5088753;28;20486;-62
2023/03/05 07:39:27;;;;;;;29.10;13.63;;;;;;;;;;5088080;28;20456;-61
2023/03/05 07:41:55;;;;;;;28.67;13.70;;;;;;;;;;5088773;28;20436;-62
2023/03/05 07:44:23;;;;;;;27.40;13.73;;;;;;;;;;5088248;28;20472;-62
2023/03/05 07:46:51;;;;;;;29.70;13.77;;;;;;;;;;5090365;28;20436;-62
2023/03/05 07:49:19;;;;;;;27.23;14.33;;;;;;;;;;5091707;28;20501;-62
2023/03/05 07:51:48;;;;;;;32.13;14.47;;;;;;;;;;5090521;28;20507;-61
2023/03/05 07:54:16;;;;;;;33.27;15.30;;;;;;;;;;5089300;28;20206;-62
2023/03/05 07:56:44;;;;;;;31.13;14.37;;;;;;;;;;5083591;28;20463;-61
2023/03/05 07:59:13;;;;;;;29.57;15.17;;;;;;;;;;5089563;28;20206;-61
2023/03/05 08:01:41;;;;;;;22.47;12.60;;;;;;;;;;5083051;28;20515;-61
2023/03/05 08:04:09;;;;;;;28.47;14.70;;;;;;;;;;5080414;28;20801;-62
2023/03/05 08:06:39;;;;;;;29.77;15.37;;;;;;;;;;5080260;28;20986;-61
2023/03/05 08:09:08;;;;;;;26.50;14.00;;;;;;;;;;5080008;28;20990;-61
2023/03/05 08:11:36;;;;;;;29.57;13.40;;;;;;;;;;5080649;28;20448;-61
2023/03/05 08:14:04;;;;;;;28.20;13.87;;;;;;;;;;5080421;28;20829;-61
2023/03/05 08:16:32;;;;;;;29.77;13.83;;;;;;;;;;5080464;28;20523;-61
2023/03/05 08:19:00;;;;;;;26.47;14.03;;;;;;;;;;5080527;28;20445;-62
2023/03/05 08:21:29;;;;;;;31.80;16.23;;;;;;;;;;5080506;28;20448;-62
2023/03/05 08:23:57;;;;;;;28.37;14.03;;;;;;;;;;5080034;28;20452;-61
2023/03/05 08:26:28;;;;;;;28.53;14.83;;;;;;;;;;5086589;28;20459;-62
2023/03/05 08:28:56;;;;;;;27.33;12.80;;;;;;;;;;5088658;28;20479;-62
2023/03/05 08:31:25;;;;;;;25.87;13.73;;;;;;;;;;5090437;28;20463;-62
2023/03/05 08:33:55;;;;;;;29.97;14.40;;;;;;;;;;5096353;28;20440;-62
2023/03/05 08:36:23;;;;;;;28.27;15.00;;;;;;;;;;5100227;28;20466;-62
2023/03/05 08:38:51;;;;;;;27.03;13.77;;;;;;;;;;5100153;28;20474;-62
2023/03/05 08:41:19;;;;;;;29.67;13.43;;;;;;;;;;5066648;28;20472;-62
2023/03/05 08:43:48;;;;;;;31.30;13.87;;;;;;;;;;5080106;28;20445;-62
2023/03/05 08:46:16;;;;;;;25.37;13.13;;;;;;;;;;5080020;28;20486;-62
2023/03/05 08:48:44;;;;;;;27.60;14.33;;;;;;;;;;5079987;28;20483;-62
2023/03/05 08:51:13;;;;;;;26.63;12.97;;;;;;;;;;5079790;28;20492;-62
2023/03/05 08:53:42;;;;;;;27.23;13.87;;;;;;;;;;5079776;28;20444;-62
2023/03/05 08:56:10;;;;;;;28.87;14.80;;;;;;;;;;5079945;28;20450;-61
2023/03/05 08:58:38;;;;;;;31.83;14.13;;;;;;;;;;5079842;28;20455;-62
2023/03/05 09:01:08;;;;;;;34.93;15.40;;;;;;;;;;5079362;28;20813;-62
2023/03/05 09:03:36;;;;;;;26.90;14.03;;;;;;;;;;5079825;28;20468;-62
2023/03/05 09:06:05;;;;;;;29.27;15.67;;;;;;;;;;5079668;28;20444;-62
2023/03/05 09:08:33;;;;;;;33.43;14.70;;;;;;;;;;5078944;28;20472;-62
2023/03/05 09:11:01;;;;;;;32.77;15.93;;;;;;;;;;5079235;28;20471;-62
2023/03/05 09:13:30;;;;;;;32.63;14.50;;;;;;;;;;5079528;28;20448;-62
2023/03/05 09:15:58;;;;;;;35.20;15.27;;;;;;;;;;5079402;28;20447;-62
2023/03/05 09:18:28;;;;;;;37.07;15.13;;;;;;;;;;5079113;28;20488;-62
2023/03/05 09:20:56;;;;;;;36.93;16.17;;;;;;;;;;5078990;28;20989;-62
2023/03/05 09:23:24;;;;;;;30.37;15.10;;;;;;;;;;5079223;28;20440;-62
2023/03/05 09:25:52;;;;;;;28.43;15.30;;;;;;;;;;5078965;28;20519;-62
2023/03/05 09:28:22;;;;;;;31.80;14.57;;;;;;;;;;5079223;28;20444;-62
2023/03/05 09:30:50;;;;;;;36.77;16.20;;;;;;;;;;5080922;28;20308;-63
2023/03/05 09:33:18;;;;;;;32.20;16.03;;;;;;;;;;5087941;28;20230;-62
2023/03/05 09:35:48;;;;;;;39.17;16.90;;;;;;;;;;5082739;28;20234;-62
2023/03/05 09:38:18;;;;;;;34.70;16.47;;;;;;;;;;5078852;28;20265;-61
2023/03/05 09:40:53;;;;;;;35.30;16.67;;;;;;;;;;5078199;28;20277;-61
2023/03/05 09:43:28;;;;;;;35.37;16.40;;;;;;;;;;5078655;28;20479;-61
2023/03/05 09:45:59;;;;;;;34.03;16.60;;;;;;;;;;5078413;28;20448;-61
2023/03/05 09:48:36;;;;;;;36.37;16.07;;;;;;;;;;5077615;28;20957;-61
2023/03/05 09:51:12;;;;;;;32.83;15.37;;;;;;;;;;5077617;28;21025;-61
2023/03/05 09:53:44;;;;;;;33.60;16.27;;;;;;;;;;5078004;28;20471;-62
2023/03/05 09:56:14;;;;;;;32.33;17.30;;;;;;;;;;5078262;28;20472;-61
2023/03/05 09:58:43;;;;;;;34.50;17.20;;;;;;;;;;5086227;28;20487;-61
2023/03/05 10:01:13;;;;;;;39.87;17.17;;;;;;;;;;5087975;28;20458;-61
2023/03/05 10:03:50;;;;;;;35.33;15.67;;;;;;;;;;5088991;28;20436;-61
2023/03/05 10:06:23;;;;;;;36.50;16.30;;;;;;;;;;5084004;28;20945;-61
2023/03/05 10:08:57;;;;;;;30.57;16.27;;;;;;;;;;5087208;28;20465;-61
2023/03/05 10:11:34;;;;;;;34.03;17.13;;;;;;;;;;5084434;28;20433;-61
2023/03/05 10:14:02;;;;;;;40.00;17.60;;;;;;;;;;5085986;28;20457;-61
2023/03/05 10:16:48;;;;;;;40.53;16.77;;;;;;;;;;5088182;28;20446;-61
2023/03/05 10:19:21;;;;;;;35.30;16.27;;;;;;;;;;5084576;28;20882;-61
2023/03/05 10:21:53;;;;;;;35.53;17.43;;;;;;;;;;5072143;28;20441;-61
2023/03/05 10:24:25;;;;;;;34.57;17.23;;;;;;;;;;5071547;28;20935;-61
2023/03/05 10:26:58;;;;;;;38.67;17.40;;;;;;;;;;5077529;28;20476;-60
2023/03/05 10:29:41;;;;;;;33.13;16.87;;;;;;;;;;5083350;28;20514;-61
2023/03/05 10:32:15;;;;;;;39.83;17.57;;;;;;;;;;5083330;28;20438;-61
2023/03/05 10:34:50;;;;;;;39.43;17.63;;;;;;;;;;5092380;28;20440;-61
2023/03/05 10:37:34;;;;;;;33.80;16.93;;;;;;;;;;5077643;28;20472;-60
2023/03/05 10:40:08;;;;;;;31.47;16.73;;;;;;;;;;5076153;28;20556;-61
2023/03/05 10:42:41;;;;;;;38.37;16.47;;;;;;;;;;5077437;28;20775;-63
2023/03/05 10:45:14;;;;;;;35.93;16.83;;;;;;;;;;5077466;28;20523;-63
2023/03/05 10:47:45;;;;;;;34.27;17.03;;;;;;;;;;5077518;28;20449;-64
2023/03/05 10:50:16;;;;;;;45.50;18.37;;;;;;;;;;5077473;28;20524;-61
2023/03/05 10:52:50;;;;;;;34.67;16.83;;;;;;;;;;5077631;28;20448;-62
2023/03/05 10:55:19;;;;;;;35.87;16.97;;;;;;;;;;5076754;28;20444;-63
2023/03/05 10:57:47;;;;;;;37.33;18.17;;;;;;;;;;5077576;28;20480;-64
2023/03/05 11:00:18;;;;;;;33.70;17.07;;;;;;;;;;5077306;28;20464;-64
2023/03/05 11:03:00;;;;;;;33.37;16.70;;;;;;;;;;5078438;28;20536;-64
2023/03/05 11:05:36;;;;;;;35.10;17.07;;;;;;;;;;5079146;28;20976;-64
2023/03/05 11:08:17;;;;;;;39.83;17.60;;;;;;;;;;5081280;28;20265;-64
2023/03/05 11:10:45;;;;;;;30.03;17.27;;;;;;;;;;5081264;28;20321;-64
2023/03/05 11:13:24;;;;;;;32.03;16.03;;;;;;;;;;5074117;28;20210;-62
2023/03/05 11:15:59;;;;;;;33.07;17.13;;;;;;;;;;5081214;28;20294;-62
2023/03/05 11:18:30;;;;;;;33.97;15.97;;;;;;;;;;5081179;28;20205;-61
2023/03/05 11:21:07;;;;;;;30.60;17.40;;;;;;;;;;5081175;28;20221;-62
2023/03/05 11:23:36;;;;;;;38.63;17.87;;;;;;;;;;5081138;28;20219;-61
2023/03/05 11:26:05;;;;;;;35.47;16.93;;;;;;;;;;5080751;28;20272;-62
2023/03/05 11:28:35;;;;;;;36.67;17.50;;;;;;;;;;5083044;28;20203;-62
2023/03/05 11:31:07;;;;;;;35.33;16.37;;;;;;;;;;5080523;28;20306;-60
2023/03/05 11:33:36;;;;;;;40.47;18.30;;;;;;;;;;5078865;28;20560;-62
2023/03/05 11:36:10;;;;;;;28.83;14.83;;;;;;;;;;5081221;28;20206;-62
2023/03/05 11:38:47;;;;;;;35.87;16.77;;;;;;;;;;5069708;28;20225;-62
2023/03/05 11:41:15;;;;;;;35.53;17.27;;;;;;;;;;5080219;28;20731;-61
2023/03/05 11:43:43;;;;;;;34.80;16.20;;;;;;;;;;5080129;28;20221;-61
2023/03/05 11:46:12;;;;;;;36.97;16.43;;;;;;;;;;5081138;28;20202;-61
2023/03/05 11:48:41;;;;;;;31.20;17.77;;;;;;;;;;5079477;28;20209;-61
2023/03/05 11:51:25;;;;;;;32.00;16.10;;;;;;;;;;5081814;28;20224;-61
2023/03/05 11:53:58;;;;;;;31.93;16.33;;;;;;;;;;5080309;28;20206;-61
2023/03/05 11:56:27;;;;;;;30.53;16.13;;;;;;;;;;5078864;28;20277;-62
2023/03/05 11:59:00;;;;;;;33.43;16.17;;;;;;;;;;5081675;28;20674;-62
2023/03/05 12:01:29;;;;;;;40.17;16.47;;;;;;;;;;5079350;28;20205;-62
2023/03/05 12:03:58;;;;;;;33.70;15.43;;;;;;;;;;5083561;28;20282;-62
2023/03/05 12:06:29;;;;;;;31.40;15.47;;;;;;;;;;5080230;28;20233;-62
2023/03/05 12:09:01;;;;;;;30.00;15.60;;;;;;;;;;5078546;28;20254;-63
2023/03/05 12:11:30;;;;;;;31.73;15.33;;;;;;;;;;5079719;28;20221;-62
2023/03/05 12:14:03;;;;;;;30.20;15.43;;;;;;;;;;5081017;28;20198;-62
2023/03/05 12:16:34;;;;;;;34.40;15.10;;;;;;;;;;5081215;28;20198;-63
2023/03/05 12:19:10;;;;;;;31.73;16.40;;;;;;;;;;5088035;28;20657;-63
2023/03/05 12:21:39;;;;;;;33.30;15.67;;;;;;;;;;5080408;28;20204;-63
2023/03/05 12:24:22;;;;;;;32.23;16.33;;;;;;;;;;5079890;28;20260;-64
2023/03/05 12:27:08;;;;;;;30.67;16.00;;;;;;;;;;5079810;28;20320;-62
2023/03/05 12:29:40;;;;;;;32.47;16.37;;;;;;;;;;5079801;28;20222;-63
2023/03/05 12:32:24;;;;;;;32.43;16.10;;;;;;;;;;5079697;28;20597;-62
2023/03/05 12:34:56;;;;;;;62.63;30.90;;;;;;;;;;5068222;28;20218;-62
2023/03/05 12:37:43;;;;;;;42.97;21.63;;;;;;;;;;5079937;28;20206;-62
2023/03/05 12:40:21;;;;;;;31.80;14.43;;;;;;;;;;5079219;28;20229;-62
2023/03/05 12:42:55;;;;;;;27.40;14.83;;;;;;;;;;5079950;28;20292;-62
2023/03/05 12:45:27;;;;;;;26.33;15.07;;;;;;;;;;5079491;28;20206;-61
2023/03/05 12:48:14;;;;;;;31.37;15.30;;;;;;;;;;5080866;28;20202;-61
2023/03/05 12:50:51;;;;;;;26.60;13.33;;;;;;;;;;5079585;28;20230;-62
2023/03/05 12:53:20;;;;;;;28.83;14.77;;;;;;;;;;5077145;28;20198;-64
2023/03/05 12:55:51;;;;;;;31.40;13.80;;;;;;;;;;5094167;28;20263;-63
2023/03/05 12:58:24;;;;;;;30.20;14.37;;;;;;;;;;5100306;28;20205;-63
2023/03/05 13:00:55;;;;;;;26.53;14.53;;;;;;;;;;5099815;28;20325;-63
2023/03/05 13:03:26;;;;;;;23.17;12.47;;;;;;;;;;5100068;28;20209;-63
2023/03/05 13:05:55;;;;;;;26.17;13.17;;;;;;;;;;5099826;28;20201;-63
2023/03/05 13:08:25;;;;;;;23.83;12.83;;;;;;;;;;5099229;28;20260;-63
2023/03/05 13:10:54;;;;;;;30.87;13.77;;;;;;;;;;5099394;28;20588;-63
2023/03/05 13:13:24;;;;;;;28.10;12.87;;;;;;;;;;5099931;28;20212;-63
2023/03/05 13:15:52;;;;;;;24.47;12.93;;;;;;;;;;5099727;28;20213;-63
2023/03/05 13:18:21;;;;;;;25.70;12.73;;;;;;;;;;5099630;28;20210;-63
2023/03/05 13:21:01;;;;;;;23.77;12.47;;;;;;;;;;5099437;28;20658;-63
2023/03/05 13:23:29;;;;;;;24.87;13.43;;;;;;;;;;5099405;28;20208;-63
2023/03/05 13:25:58;;;;;;;24.33;12.80;;;;;;;;;;5098377;28;20240;-63
2023/03/05 13:28:28;;;;;;;27.20;12.13;;;;;;;;;;5099444;28;20209;-63
2023/03/05 13:30:57;;;;;;;27.63;13.00;;;;;;;;;;5099198;28;20692;-62
2023/03/05 13:33:26;;;;;;;27.53;13.37;;;;;;;;;;5099097;28;20233;-62
2023/03/05 13:35:54;;;;;;;26.20;12.40;;;;;;;;;;5088078;28;20213;-63
2023/03/05 13:38:24;;;;;;;25.83;12.63;;;;;;;;;;5078865;28;20214;-62
2023/03/05 13:41:06;;;;;;;25.63;12.07;;;;;;;;;;5078857;28;20236;-62
2023/03/05 13:43:41;;;;;;;26.87;12.97;;;;;;;;;;5078705;28;20214;-62
2023/03/05 13:46:09;;;;;;;24.07;11.27;;;;;;;;;;5078750;28;20288;-62
2023/03/05 13:48:37;;;;;;;27.60;12.63;;;;;;;;;;5078684;28;20236;-63
2023/03/05 13:51:07;;;;;;;21.43;12.73;;;;;;;;;;5078781;28;20222;-62
2023/03/05 13:53:35;;;;;;;27.20;13.27;;;;;;;;;;5078705;28;20206;-62
2023/03/05 13:56:04;;;;;;;25.33;12.47;;;;;;;;;;5081997;28;20216;-61
2023/03/05 13:58:47;;;;;;;23.93;12.20;;;;;;;;;;5098699;28;20209;-61
2023/03/05 14:01:20;;;;;;;30.47;13.57;;;;;;;;;;5098413;28;20276;-61
2023/03/05 14:03:49;;;;;;;27.53;14.07;;;;;;;;;;5098716;28;20201;-61
2023/03/05 14:06:18;;;;;;;28.80;13.40;;;;;;;;;;5098342;28;20653;-62
2023/03/05 14:08:49;;;;;;;23.60;10.90;;;;;;;;;;5098035;28;20239;-61
2023/03/05 14:11:18;;;;;;;27.67;12.87;;;;;;;;;;5098404;28;20645;-62
2023/03/05 14:13:48;;;;;;;25.77;12.07;;;;;;;;;;5098606;28;20296;-61
2023/03/05 14:16:24;;;;;;;22.13;12.33;;;;;;;;;;5098362;28;20209;-61
2023/03/05 14:18:53;;;;;;;27.87;13.47;;;;;;;;;;5098277;28;20618;-62
2023/03/05 14:21:20;;;;;;;23.70;13.27;;;;;;;;;;5098624;28;20216;-61
2023/03/05 14:23:50;;;;;;;25.67;12.03;;;;;;;;;;5097990;28;20672;-61
2023/03/05 14:26:21;;;;;;;27.50;12.33;;;;;;;;;;5098111;28;20632;-62
2023/03/05 14:28:54;;;;;;;24.43;12.17;;;;;;;;;;5098239;28;20229;-61
2023/03/05 14:31:22;;;;;;;31.10;13.47;;;;;;;;;;5097799;28;20312;-62